Airfield :
LOGIN :

Register | Disclaimer

   EN    FR    IT 

 










Legend :    VFR   Marginal VFR   IFR   Intensive IFR   Very Intensive IFR
Visi :
Ceiling :
>= 8 km
>= 3000ft
5 to 8 km
1000 to 3000 ft
1500m to 5 km
500 to 1000 ft
800 to 1500m
200 to 500 ft
< 800m
< 200 ft
Symbols :   Thunderstorms  Fog  Heavy snow  Heavy precipitations  Wind > 20 kt
SIGMETs :     Misc.  Thunderstorms  Icing  Turbulence  Mountain Waves  Volcanic Ashes







- Airport Elevation : 408 ft
- IATA code : FKB


EDSB - Karlsruhe Baden Baden

CURRENT METAR :
  • 200120Z AUTO 20004KT 9999 FEW240/// 16/16 Q1012

EXPIRED METARs :
  • 200050Z AUTO VRB02KT 9999 FEW099/// SCT240/// 17/16 Q1012
  • 200020Z AUTO VRB02KT 9999 FEW120/// BKN140/// 16/16 Q1012
  • 192350Z AUTO VRB02KT 9999 OVC100/// 17/16 Q1012
  • 192320Z AUTO 13005KT 080V180 9999 BKN100/// BKN130/// BKN170/// 17/16 Q1012
  • 192250Z AUTO 35004KT 270V050 9999 FEW023/// BKN100/// OVC120/// 16/16 Q1012

TAF TAF EDSB
Valid from the 19 at 18:00 until the 20 at 18:00 UTC


191700Z 1918/2018 24005KT CAVOK
PROB30
TEMPO 1922/2005 TSRA BKN050CB
PROB30
TEMPO 2012/2018 27015G25KT TSRA BKN040CB
No reported NOTAMs for that airfield.
2 SIGMETs reported for the Langen FIR (EDGG) :
 
Embedded thunderstorms
EDGG SIGMET 3 VALID 200130/200300 EDZF
EDGG LANGEN FIR EMBD TS FCST WI N5030 E00909 - N5020 E01024 - N4929 E01107 - N4903 E01028 - N5012 E00841 - N5030 E00909 TOP FL380 MOV NNE NC=
Embedded thunderstorms
EDGG SIGMET 1 VALID 200003/200130 EDZF
EDGG LANGEN FIR EMBD TS FCST WI N5016 E00916 - N4926 E01059 - N4907 E01026 - N4846 E00942 - N4936 E00811 - N5016 E00916 TOP FL380 MOV NNE NC=



MET'MAP, your aeronautical weather chart ! - Copyright ORBIFLY December 2007 - Disclaimer

ORBIFLY MET'MAP TEAM :

Programming & Development : Alexandra Zaïnal
Concept & Development : Baudouin d'Aumeries
Co-Development & Prog : Marc-Olivier Méhu
Technical & hardware support : Manuel Goepfert

Contact : metmap@orbifly.com




SOURCES & CREDITS :

   NOAA